Time;durP1;ratioP1;P1;durP2;ratioP2;P2;SDS_P1;SDS_P2;PMS_P1;PMS_P2;Temp;Humidity;BMP_temperature;BMP_pressure;BME280_temperature;BME280_humidity;BME280_pressure;Samples;Min_cycle;Max_cycle;Signal;HPM_P1;HPM_P2
2022/03/25 00:01:26;;;;;;;9.53;6.43;;;;;;;3.83;71.39;101638.34;5072976;28;20624;-80
2022/03/25 00:03:52;;;;;;;10.07;7.43;;;;;;;3.70;72.03;101627.78;5072710;28;20202;-76
2022/03/25 00:06:18;;;;;;;10.57;8.60;;;;;;;3.56;71.84;101617.22;5072611;28;20170;-78
2022/03/25 00:08:43;;;;;;;10.70;8.17;;;;;;;3.71;72.76;101642.94;5071919;28;20185;-79
2022/03/25 00:11:09;;;;;;;12.33;7.90;;;;;;;3.70;72.72;101630.50;5072696;28;20173;-79
2022/03/25 00:13:34;;;;;;;16.17;9.07;;;;;;;3.66;72.32;101626.63;5072896;28;20465;-80
2022/03/25 00:16:00;;;;;;;12.27;7.43;;;;;;;3.55;72.70;101625.56;5072562;28;20171;-73
2022/03/25 00:18:25;;;;;;;10.23;6.77;;;;;;;3.46;73.19;101617.00;5070706;28;20167;-76
2022/03/25 00:20:50;;;;;;;13.57;6.77;;;;;;;3.34;73.15;101608.09;5070667;28;20704;-77
2022/03/25 00:23:16;;;;;;;13.70;7.83;;;;;;;3.21;73.68;101608.31;5072312;28;20662;-79
2022/03/25 00:25:42;;;;;;;9.20;6.83;;;;;;;3.13;74.21;101606.75;5072376;28;20185;-79
2022/03/25 00:28:07;;;;;;;11.20;7.93;;;;;;;3.05;74.56;101600.91;5072018;28;20179;-78
2022/03/25 00:30:33;;;;;;;9.53;7.20;;;;;;;2.96;75.05;101601.22;5072162;28;20233;-79
2022/03/25 00:32:59;;;;;;;12.63;7.20;;;;;;;2.83;75.79;101587.94;5072496;28;20622;-78
2022/03/25 00:35:24;;;;;;;12.13;7.23;;;;;;;2.79;75.97;101588.66;5072216;28;20656;-81
2022/03/25 00:37:50;;;;;;;9.47;6.53;;;;;;;2.71;76.18;101587.09;5070589;28;20186;-80
2022/03/25 00:40:15;;;;;;;16.10;8.93;;;;;;;2.68;76.88;101591.06;5072088;28;20182;-76
2022/03/25 00:42:41;;;;;;;16.80;7.53;;;;;;;2.76;77.52;101602.59;5072187;28;20212;-76
2022/03/25 00:45:07;;;;;;;8.27;6.97;;;;;;;2.75;77.32;101599.09;5071936;28;20177;-78
2022/03/25 00:47:33;;;;;;;7.73;6.60;;;;;;;2.75;78.08;101598.22;5071777;28;20258;-78
2022/03/25 00:49:58;;;;;;;11.17;6.53;;;;;;;2.64;78.13;101592.59;5071867;28;20687;-79
2022/03/25 00:52:24;;;;;;;10.50;7.20;;;;;;;2.55;78.12;101574.25;5071723;28;20672;-81
2022/03/25 00:54:53;;;;;;;12.60;6.40;;;;;;;2.72;77.54;101596.00;5071691;28;20221;-80
2022/03/25 00:57:19;;;;;;;13.80;6.97;;;;;;;2.82;76.85;101607.88;5070323;28;20174;-78
2022/03/25 00:59:45;;;;;;;8.00;5.13;;;;;;;2.72;76.57;101583.34;5070388;28;20222;-78
2022/03/25 01:02:10;;;;;;;8.20;6.83;;;;;;;2.68;76.49;101591.06;5071796;28;20712;-80
2022/03/25 01:04:36;;;;;;;9.13;5.43;;;;;;;2.66;76.22;101590.50;5071746;28;20174;-77
2022/03/25 01:07:01;;;;;;;7.23;5.90;;;;;;;2.74;76.70;101600.13;5069934;28;20181;-78
2022/03/25 01:09:27;;;;;;;11.10;6.50;;;;;;;2.67;76.53;101602.94;5069998;28;20593;-78
2022/03/25 01:11:53;;;;;;;6.43;5.77;;;;;;;2.75;75.82;101607.19;5071721;28;20174;-80
2022/03/25 01:14:19;;;;;;;6.80;5.50;;;;;;;2.66;75.54;101595.88;5071540;28;20167;-79
2022/03/25 01:16:44;;;;;;;11.30;6.53;;;;;;;2.64;75.85;101599.88;5071326;28;20186;-78
2022/03/25 01:19:10;;;;;;;10.50;6.73;;;;;;;2.65;76.50;101593.41;5071348;28;20183;-77
2022/03/25 01:21:36;;;;;;;11.00;6.40;;;;;;;2.69;76.51;101602.69;5071241;28;20294;-77
2022/03/25 01:24:02;;;;;;;10.57;7.33;;;;;;;2.69;76.54;101602.69;5071280;28;20214;-82
2022/03/25 01:26:27;;;;;;;8.17;6.83;;;;;;;2.77;76.29;101606.94;5071604;28;20500;-79
2022/03/25 01:28:53;;;;;;;12.80;7.13;;;;;;;2.80;76.41;101601.09;5070995;28;20650;-77
2022/03/25 01:31:19;;;;;;;12.43;7.67;;;;;;;2.81;76.61;101608.94;5071056;28;20178;-77
2022/03/25 01:33:45;;;;;;;12.23;7.93;;;;;;;2.85;76.77;101604.72;5071018;28;20653;-78
2022/03/25 01:36:10;;;;;;;14.27;7.73;;;;;;;2.90;77.12;101614.84;5071016;28;20167;-80
2022/03/25 01:38:35;;;;;;;11.17;8.33;;;;;;;2.97;77.98;101605.56;5070818;28;20197;-79
2022/03/25 01:41:01;;;;;;;18.13;7.47;;;;;;;3.09;77.55;101620.97;5071242;28;20171;-79
2022/03/25 01:43:27;;;;;;;12.77;7.53;;;;;;;3.11;76.73;101614.28;5071123;28;20289;-79
2022/03/25 01:45:53;;;;;;;10.47;8.00;;;;;;;2.94;76.04;101597.13;5071028;28;20588;-76
2022/03/25 01:48:21;;;;;;;18.27;7.10;;;;;;;2.80;76.08;101588.41;5070747;28;20175;-79
2022/03/25 01:50:47;;;;;;;10.43;7.90;;;;;;;2.71;76.97;101587.09;5070878;28;20198;-76
2022/03/25 01:53:21;;;;;;;11.83;7.13;;;;;;;2.50;77.41;101566.06;5071111;28;20273;-77
2022/03/25 01:55:58;;;;;;;19.00;7.00;;;;;;;2.47;78.51;101577.31;5070976;28;20163;-77
2022/03/25 01:58:26;;;;;;;7.73;6.93;;;;;;;2.54;79.56;101591.50;5070835;28;20177;-82
2022/03/25 02:00:52;;;;;;;14.40;7.60;;;;;;;2.58;80.10;101592.69;5070846;28;20174;-80
2022/03/25 02:03:18;;;;;;;11.03;7.43;;;;;;;2.66;79.77;101603.97;5070553;28;20203;-81
2022/03/25 02:05:45;;;;;;;10.87;7.00;;;;;;;2.70;79.44;101601.63;5070705;28;20166;-77
2022/03/25 02:08:11;;;;;;;15.40;9.20;;;;;;;2.51;79.28;101583.88;5070251;28;20257;-77
2022/03/25 02:10:38;;;;;;;9.17;7.53;;;;;;;2.49;78.97;101596.78;5070688;28;20273;-78
2022/03/25 02:13:04;;;;;;;11.00;8.17;;;;;;;2.49;80.15;101600.28;5070636;28;20162;-80
2022/03/25 02:15:35;;;;;;;14.67;8.10;;;;;;;2.57;81.07;101615.31;5070669;28;20220;-80
2022/03/25 02:18:02;;;;;;;16.50;7.87;;;;;;;2.64;81.52;101621.47;5070392;28;20174;-80
2022/03/25 02:20:27;;;;;;;16.20;8.20;;;;;;;2.76;82.04;101625.00;5070609;28;20162;-81
2022/03/25 02:22:53;;;;;;;10.63;7.20;;;;;;;2.77;79.92;101610.47;5070691;28;20692;-76
2022/03/25 02:25:20;;;;;;;12.83;6.83;;;;;;;2.69;79.01;101608.09;5070783;28;20217;-78
2022/03/25 02:27:47;;;;;;;14.17;7.40;;;;;;;2.40;78.21;101585.47;5070213;28;20213;-74
2022/03/25 02:30:12;;;;;;;8.77;6.40;;;;;;;2.26;78.69;101587.53;5070504;28;20194;-74
2022/03/25 02:32:39;;;;;;;8.43;6.30;;;;;;;2.23;78.83;101593.38;5070330;28;20793;-80
2022/03/25 02:35:06;;;;;;;14.10;6.57;;;;;;;2.07;78.71;101577.84;5070349;28;20532;-80
2022/03/25 02:37:31;;;;;;;9.70;6.20;;;;;;;2.03;79.46;101582.88;5070275;28;20193;-77
2022/03/25 02:39:57;;;;;;;9.80;6.30;;;;;;;1.87;79.76;101569.97;5070326;28;20194;-76
2022/03/25 02:42:22;;;;;;;11.83;6.77;;;;;;;1.87;80.41;101583.44;5070983;28;20503;-78
2022/03/25 02:44:48;;;;;;;9.87;6.60;;;;;;;1.90;80.40;101588.41;5074451;28;20183;-78
2022/03/25 02:47:14;;;;;;;9.63;6.57;;;;;;;1.93;79.06;101598.75;5074310;28;20220;-79
2022/03/25 02:49:39;;;;;;;11.40;6.13;;;;;;;2.07;79.49;101602.91;5074372;28;20206;-76
2022/03/25 02:52:05;;;;;;;10.37;7.60;;;;;;;2.11;79.31;101610.53;5074157;28;20186;-79
2022/03/25 02:54:30;;;;;;;7.93;6.33;;;;;;;2.24;79.20;101619.28;5074629;28;20190;-77
2022/03/25 02:56:57;;;;;;;9.10;6.97;;;;;;;2.23;78.75;101611.44;5073783;28;20224;-80
2022/03/25 02:59:24;;;;;;;8.77;6.90;;;;;;;2.32;79.53;101615.47;5072714;28;20205;-75
2022/03/25 03:01:49;;;;;;;7.50;5.93;;;;;;;2.47;78.67;101615.06;5072678;28;20269;-76
2022/03/25 03:04:14;;;;;;;10.30;7.27;;;;;;;2.41;76.16;101605.16;5073925;28;20614;-76
2022/03/25 03:06:40;;;;;;;9.53;6.23;;;;;;;2.55;76.41;101625.50;5074052;28;20216;-75
2022/03/25 03:09:05;;;;;;;11.93;6.97;;;;;;;2.51;75.69;101621.63;5073591;28;20594;-80
2022/03/25 03:11:31;;;;;;;8.30;6.77;;;;;;;2.48;75.75;101609.44;5073786;28;20554;-79
2022/03/25 03:13:57;;;;;;;8.90;7.10;;;;;;;2.39;75.80;101605.41;5073781;28;20385;-78
2022/03/25 03:16:22;;;;;;;12.13;6.50;;;;;;;2.29;77.18;101595.16;5073754;28;20199;-81
2022/03/25 03:18:48;;;;;;;9.27;6.47;;;;;;;2.18;77.35;101582.47;5073451;28;20174;-80
2022/03/25 03:21:13;;;;;;;10.53;6.30;;;;;;;2.12;77.95;101580.66;5073699;28;20209;-78
2022/03/25 03:23:39;;;;;;;8.37;6.07;;;;;;;1.97;79.14;101572.97;5073527;28;20301;-79
2022/03/25 03:26:04;;;;;;;12.83;6.30;;;;;;;2.00;79.61;101594.06;5073647;28;20171;-82
2022/03/25 03:28:29;;;;;;;10.97;7.53;;;;;;;1.99;79.95;101600.50;5068690;28;20182;-76
2022/03/25 03:30:55;;;;;;;12.10;8.97;;;;;;;2.00;80.40;101609.44;5073396;28;20179;-81
2022/03/25 03:33:21;;;;;;;11.37;8.17;;;;;;;1.97;80.48;101599.91;5073171;28;20186;-76
2022/03/25 03:35:46;;;;;;;16.73;8.90;;;;;;;1.97;81.22;101612.56;5073220;28;20556;-78
2022/03/25 03:38:11;;;;;;;20.97;8.87;;;;;;;1.89;81.33;101594.03;5072972;28;20171;-79
2022/03/25 03:40:38;;;;;;;15.70;9.47;;;;;;;1.92;81.85;101601.66;5073107;28;20186;-78
2022/03/25 03:43:04;;;;;;;14.90;8.83;;;;;;;1.86;81.94;101594.47;5072947;28;20291;-77
2022/03/25 03:45:32;;;;;;;11.20;9.00;;;;;;;1.75;82.73;101594.19;5073233;28;20594;-76
2022/03/25 03:47:57;;;;;;;13.17;8.50;;;;;;;1.86;83.18;101606.06;5072971;28;20180;-78
2022/03/25 03:50:24;;;;;;;12.63;8.20;;;;;;;1.75;82.88;101587.97;5073137;28;20617;-81
2022/03/25 03:52:50;;;;;;;15.20;9.30;;;;;;;1.70;83.28;101596.72;5072581;28;20257;-78
2022/03/25 03:55:15;;;;;;;12.27;9.50;;;;;;;1.63;83.59;101587.06;5071908;28;20257;-81
2022/03/25 03:57:41;;;;;;;9.53;7.33;;;;;;;1.47;83.64;101564.25;5071468;28;20688;-77
2022/03/25 04:00:12;;;;;;;14.30;7.67;;;;;;;1.37;84.17;101566.63;5072870;28;20175;-79
2022/03/25 04:02:38;;;;;;;12.73;7.80;;;;;;;1.25;85.16;101560.31;5071467;28;20225;-82
2022/03/25 04:05:04;;;;;;;14.70;7.60;;;;;;;1.26;85.26;101573.56;5072873;28;20598;-78
2022/03/25 04:07:30;;;;;;;14.37;8.67;;;;;;;1.33;85.74;101590.47;5072471;28;20201;-77
2022/03/25 04:09:56;;;;;;;14.40;8.97;;;;;;;1.30;86.10;101592.75;5072846;28;20258;-79
2022/03/25 04:12:21;;;;;;;12.80;8.33;;;;;;;1.15;86.64;101577.78;5072640;28;20177;-80
2022/03/25 04:14:47;;;;;;;8.50;7.30;;;;;;;1.09;86.75;101576.00;5072706;28;20167;-80
2022/03/25 04:17:13;;;;;;;13.73;8.13;;;;;;;1.07;87.41;101575.38;5072844;28;20262;-80
2022/03/25 04:19:39;;;;;;;17.77;8.13;;;;;;;1.02;87.61;101577.94;5072644;28;20592;-82
2022/03/25 04:22:05;;;;;;;11.97;7.97;;;;;;;0.93;87.92;101570.34;5072485;28;20182;-79
2022/03/25 04:24:31;;;;;;;14.80;7.17;;;;;;;0.89;88.37;101580.72;5072499;28;20575;-81
2022/03/25 04:26:56;;;;;;;18.07;6.90;;;;;;;0.90;88.30;101577.00;5072183;28;20258;-76
2022/03/25 04:29:22;;;;;;;12.37;6.53;;;;;;;0.90;87.85;101590.44;5072409;28;20179;-80
2022/03/25 04:31:47;;;;;;;9.53;7.43;;;;;;;1.00;87.18;101601.50;5072305;28;20182;-76
2022/03/25 04:34:13;;;;;;;15.83;7.10;;;;;;;0.97;86.94;101590.38;5072203;28;20174;-80
2022/03/25 04:36:38;;;;;;;12.87;7.10;;;;;;;0.91;86.88;101594.78;5072137;28;20281;-78
2022/03/25 04:39:03;;;;;;;12.57;7.30;;;;;;;0.85;87.12;101593.75;5072035;28;20579;-82
2022/03/25 04:41:29;;;;;;;11.33;6.53;;;;;;;0.79;86.97;101583.06;5070836;28;20178;-75
2022/03/25 04:43:54;;;;;;;14.97;6.47;;;;;;;0.93;87.10;101608.81;5071996;28;20210;-79
2022/03/25 04:46:19;;;;;;;11.07;6.77;;;;;;;0.98;87.51;101608.16;5071990;28;20261;-77
2022/03/25 04:48:45;;;;;;;7.80;6.83;;;;;;;1.09;87.41;101627.13;5072062;28;20166;-79
2022/03/25 04:51:11;;;;;;;9.80;8.00;;;;;;;0.97;86.55;101601.13;5071816;28;20174;-83
2022/03/25 04:53:37;;;;;;;12.97;6.87;;;;;;;1.02;86.45;101620.16;5071427;28;20251;-78
2022/03/25 04:56:04;;;;;;;10.97;6.70;;;;;;;1.17;86.30;101629.56;5071739;28;20186;-76
2022/03/25 04:58:30;;;;;;;13.43;7.00;;;;;;;1.20;85.70;101628.28;5070278;28;20210;-79
2022/03/25 05:00:55;;;;;;;8.27;6.27;;;;;;;1.22;85.89;101628.88;5071860;28;20171;-80
2022/03/25 05:03:21;;;;;;;9.33;6.43;;;;;;;1.10;85.44;101612.63;5074413;28;20565;-73
2022/03/25 05:05:47;;;;;;;9.93;6.83;;;;;;;1.10;85.09;101618.00;5075585;28;20602;-74
2022/03/25 05:08:12;;;;;;;11.87;7.27;;;;;;;1.11;85.43;101619.66;5071737;28;20202;-72
2022/03/25 05:10:38;;;;;;;9.37;7.63;;;;;;;1.01;85.25;101610.41;5071705;28;20532;-73
2022/03/25 05:13:04;;;;;;;9.60;6.87;;;;;;;1.18;85.38;101628.50;5071705;28;20245;-73
2022/03/25 05:15:29;;;;;;;10.30;7.13;;;;;;;1.27;85.14;101628.22;5071901;28;20202;-73
2022/03/25 05:17:54;;;;;;;8.00;7.20;;;;;;;1.32;85.21;101623.00;5071769;28;20273;-73
2022/03/25 05:20:21;;;;;;;10.37;7.60;;;;;;;1.24;84.64;101626.78;5071496;28;20174;-73
2022/03/25 05:22:48;;;;;;;9.53;6.90;;;;;;;1.29;84.25;101631.50;5071316;28;20202;-73
2022/03/25 05:25:14;;;;;;;8.67;7.07;;;;;;;1.39;84.33;101642.59;5071599;28;20534;-73
2022/03/25 05:27:51;;;;;;;9.67;7.13;;;;;;;1.47;83.90;101642.34;5071057;28;20174;-74
2022/03/25 05:30:26;;;;;;;10.60;6.93;;;;;;;1.49;83.85;101642.94;5071266;28;20253;-73
2022/03/25 05:32:54;;;;;;;11.77;6.97;;;;;;;1.42;83.58;101631.38;5071304;28;20171;-73
2022/03/25 05:35:20;;;;;;;11.77;6.87;;;;;;;1.35;83.33;101631.47;5071285;28;20175;-73
2022/03/25 05:37:45;;;;;;;13.37;8.40;;;;;;;1.29;83.67;101626.13;5070963;28;20603;-73
2022/03/25 05:40:11;;;;;;;11.67;7.37;;;;;;;1.29;83.52;101631.50;5071029;28;20191;-74
2022/03/25 05:42:37;;;;;;;10.37;7.67;;;;;;;1.36;83.80;101645.75;5070857;28;20206;-74
2022/03/25 05:45:05;;;;;;;8.50;6.47;;;;;;;1.32;84.22;101641.84;5071103;28;20285;-73
2022/03/25 05:47:31;;;;;;;11.93;7.90;;;;;;;1.24;84.46;101634.03;5070842;28;20170;-76
2022/03/25 05:49:57;;;;;;;13.40;7.63;;;;;;;1.25;84.68;101641.06;5071077;28;20224;-72
2022/03/25 05:52:23;;;;;;;8.87;6.90;;;;;;;1.32;85.47;101648.06;5069249;28;20175;-72
2022/03/25 05:54:49;;;;;;;12.10;7.23;;;;;;;1.33;85.87;101641.63;5070923;28;20610;-76
2022/03/25 05:57:15;;;;;;;9.10;6.30;;;;;;;1.35;85.81;101646.78;5070109;28;20179;-73
2022/03/25 05:59:40;;;;;;;7.97;7.07;;;;;;;1.38;86.01;101655.25;5069011;28;20282;-73
2022/03/25 06:02:05;;;;;;;10.10;6.80;;;;;;;1.40;85.94;101646.94;5069985;28;20170;-75
2022/03/25 06:04:31;;;;;;;9.27;7.00;;;;;;;1.45;85.92;101669.50;5069776;28;20179;-73
2022/03/25 06:06:56;;;;;;;10.27;7.63;;;;;;;1.44;85.89;101657.03;5070494;28;20175;-72
2022/03/25 06:09:22;;;;;;;10.17;6.97;;;;;;;1.51;85.87;101667.75;5065635;28;20184;-72
2022/03/25 06:11:47;;;;;;;13.00;7.80;;;;;;;1.70;86.80;101680.22;5070769;28;20178;-72
2022/03/25 06:14:12;;;;;;;9.90;7.73;;;;;;;1.95;86.75;101695.53;5070547;28;20186;-72
2022/03/25 06:16:39;;;;;;;11.43;7.67;;;;;;;2.05;86.86;101683.19;5069908;28;20181;-73
2022/03/25 06:19:05;;;;;;;11.30;7.60;;;;;;;2.18;85.38;101684.91;5070229;28;20166;-74
2022/03/25 06:21:30;;;;;;;16.90;8.00;;;;;;;2.27;83.94;101690.81;5070397;28;20204;-77
2022/03/25 06:23:55;;;;;;;8.30;6.97;;;;;;;2.34;82.60;101686.16;5070504;28;20210;-76
2022/03/25 06:26:21;;;;;;;17.87;8.13;;;;;;;2.40;81.97;101690.66;5070589;28;20261;-73
2022/03/25 06:28:47;;;;;;;14.80;8.17;;;;;;;2.44;81.97;101688.31;5070179;28;20526;-73
2022/03/25 06:31:13;;;;;;;11.13;8.43;;;;;;;2.50;81.82;101703.59;5070473;28;20170;-76
2022/03/25 06:33:39;;;;;;;14.07;8.23;;;;;;;2.52;81.38;101702.31;5070367;28;20171;-72
2022/03/25 06:36:07;;;;;;;11.97;8.60;;;;;;;2.51;80.45;101697.97;5070391;28;20714;-72
2022/03/25 06:38:33;;;;;;;11.90;8.33;;;;;;;2.51;80.09;101695.28;5070116;28;20661;-72
2022/03/25 06:41:00;;;;;;;14.93;8.97;;;;;;;2.55;79.71;101709.97;5070603;28;20170;-78
2022/03/25 06:43:25;;;;;;;12.53;8.73;;;;;;;2.61;79.67;101713.66;5070345;28;20348;-74
2022/03/25 06:45:50;;;;;;;10.77;8.90;;;;;;;2.71;79.53;101710.38;5070259;28;20239;-74
2022/03/25 06:48:16;;;;;;;13.70;9.50;;;;;;;2.76;79.43;101707.84;5069952;28;20207;-73
2022/03/25 06:50:41;;;;;;;12.67;9.33;;;;;;;2.82;79.46;101710.44;5070509;28;20174;-72
2022/03/25 06:53:07;;;;;;;15.87;9.13;;;;;;;2.94;80.15;101719.41;5070374;28;20630;-75
2022/03/25 06:55:33;;;;;;;17.83;8.20;;;;;;;3.14;80.13;101726.38;5070279;28;20171;-75
2022/03/25 06:57:59;;;;;;;10.23;8.87;;;;;;;3.27;79.41;101731.59;5069873;28;20534;-73
2022/03/25 07:00:24;;;;;;;14.13;9.43;;;;;;;3.45;78.25;101736.91;5070109;28;20220;-74
2022/03/25 07:02:51;;;;;;;12.10;9.53;;;;;;;3.62;77.22;101739.78;5066316;28;20213;-75
2022/03/25 07:05:17;;;;;;;13.77;8.80;;;;;;;3.72;76.16;101748.13;5069746;28;20488;-73
2022/03/25 07:07:43;;;;;;;10.83;8.93;;;;;;;3.86;75.79;101746.84;5069591;28;20395;-74
2022/03/25 07:10:11;;;;;;;11.13;9.17;;;;;;;3.95;75.11;101746.50;5069725;28;20472;-78
2022/03/25 07:12:41;;;;;;;11.80;8.47;;;;;;;4.05;75.11;101755.66;5070364;28;20174;-77
2022/03/25 07:15:08;;;;;;;20.27;9.70;;;;;;;4.17;74.97;101753.75;5070627;28;20258;-76
2022/03/25 07:17:35;;;;;;;13.93;10.30;;;;;;;4.30;74.95;101762.69;5069748;28;20182;-77
2022/03/25 07:20:01;;;;;;;14.00;9.83;;;;;;;4.50;74.96;101773.16;5069916;28;20174;-77
2022/03/25 07:22:26;;;;;;;17.07;10.40;;;;;;;4.65;74.40;101763.47;5068349;28;20190;-79
2022/03/25 07:24:51;;;;;;;14.93;9.53;;;;;;;4.88;74.66;101776.09;5069997;28;20266;-71
2022/03/25 07:27:17;;;;;;;15.60;13.67;;;;;;;5.00;74.56;101770.63;5070118;28;20174;-82
2022/03/25 07:29:43;;;;;;;12.67;10.23;;;;;;;5.31;73.53;101786.41;5071380;28;20178;-79
2022/03/25 07:32:08;;;;;;;12.53;10.20;;;;;;;5.53;72.37;101786.53;5073529;28;20194;-78
2022/03/25 07:34:36;;;;;;;15.10;9.53;;;;;;;5.81;71.42;101792.97;5073540;28;20328;-79
2022/03/25 07:37:03;;;;;;;12.90;10.37;;;;;;;5.96;71.19;101795.94;5073234;28;20181;-80
2022/03/25 07:39:29;;;;;;;13.47;9.37;;;;;;;6.13;70.88;101798.66;5073305;28;20188;-78
2022/03/25 07:41:54;;;;;;;15.93;10.57;;;;;;;6.20;70.40;101797.38;5073547;28;20590;-76
2022/03/25 07:44:20;;;;;;;16.33;10.80;;;;;;;6.34;70.31;101803.28;5068507;28;20607;-78
2022/03/25 07:46:45;;;;;;;12.10;9.80;;;;;;;6.41;70.11;101817.53;5072873;28;20178;-78
2022/03/25 07:49:11;;;;;;;12.03;8.73;;;;;;;6.42;67.07;101811.00;5067710;28;20470;-79
2022/03/25 07:51:36;;;;;;;12.60;8.13;;;;;;;6.61;63.09;101827.00;5073003;28;20206;-76
2022/03/25 07:54:02;;;;;;;17.03;8.77;;;;;;;6.80;61.21;101831.09;5073120;28;20236;-77
2022/03/25 07:56:28;;;;;;;16.37;8.90;;;;;;;7.01;60.38;101843.84;5073028;28;20552;-77
2022/03/25 07:58:53;;;;;;;18.17;9.03;;;;;;;7.15;60.42;101845.09;5072924;28;20179;-76
2022/03/25 08:01:19;;;;;;;13.83;8.83;;;;;;;7.30;60.37;101858.03;5073012;28;20771;-77
2022/03/25 08:03:44;;;;;;;12.00;8.87;;;;;;;7.41;60.64;101853.56;5071471;28;20234;-77
2022/03/25 08:06:12;;;;;;;20.43;8.70;;;;;;;7.52;61.17;101866.16;5072811;28;20607;-77
2022/03/25 08:08:38;;;;;;;16.87;8.03;;;;;;;7.63;60.10;101861.66;5072648;28;20601;-78
2022/03/25 08:11:03;;;;;;;13.77;8.90;;;;;;;7.71;60.09;101869.38;5071641;28;20175;-77
2022/03/25 08:13:29;;;;;;;13.83;9.80;;;;;;;7.79;59.97;101873.50;5072772;28;20171;-80
2022/03/25 08:15:54;;;;;;;15.63;9.77;;;;;;;7.87;59.81;101875.78;5072700;28;20620;-79
2022/03/25 08:18:20;;;;;;;14.00;8.60;;;;;;;7.94;59.50;101879.91;5072386;28;20519;-83
2022/03/25 08:20:48;;;;;;;12.97;8.67;;;;;;;8.01;57.87;101885.16;5072588;28;20182;-81
2022/03/25 08:28:48;;;;;;;14.57;9.40;;;;;;;8.41;57.35;101902.94;5072300;28;20241;-80
2022/03/25 08:31:13;;;;;;;19.63;10.30;;;;;;;8.47;57.31;101910.88;5072631;28;20265;-78
2022/03/25 08:33:39;;;;;;;21.03;9.33;;;;;;;8.60;56.43;101921.31;5067566;28;20257;-78
2022/03/25 08:36:05;;;;;;;17.33;9.87;;;;;;;8.69;56.40;101918.13;5072151;28;20250;-78
2022/03/25 08:38:30;;;;;;;16.30;10.00;;;;;;;8.80;56.74;101911.63;5071779;28;20194;-77
2022/03/25 08:40:55;;;;;;;16.43;9.97;;;;;;;8.82;56.50;101918.47;5071345;28;20196;-80
2022/03/25 08:43:21;;;;;;;14.33;9.33;;;;;;;8.85;54.55;101917.97;5072159;28;20673;-80
2022/03/25 08:45:46;;;;;;;13.90;9.90;;;;;;;9.01;55.94;101929.75;5070798;28;20221;-83
2022/03/25 08:48:12;;;;;;;16.67;11.30;;;;;;;9.08;55.75;101927.59;5071976;28;20705;-82
2022/03/25 08:50:37;;;;;;;11.03;8.40;;;;;;;9.11;54.10;101932.56;5072038;28;20654;-79
2022/03/25 08:53:02;;;;;;;14.57;9.20;;;;;;;9.14;54.13;101937.47;5071999;28;20182;-80
2022/03/25 08:55:28;;;;;;;11.00;9.17;;;;;;;9.29;54.83;101939.44;5071832;28;20210;-79
2022/03/25 08:57:54;;;;;;;16.13;10.03;;;;;;;9.43;53.25;101943.34;5071479;28;20262;-77
2022/03/25 09:00:20;;;;;;;19.17;10.57;;;;;;;9.66;53.78;101955.69;5071677;28;20253;-82
2022/03/25 09:02:46;;;;;;;11.47;9.03;;;;;;;9.80;53.62;101951.34;5071564;28;20229;-80
2022/03/25 09:05:12;;;;;;;17.20;9.63;;;;;;;9.71;53.37;101935.78;5071739;28;20179;-79
2022/03/25 09:07:39;;;;;;;14.43;11.30;;;;;;;9.79;53.03;101946.16;5071466;28;20258;-81
2022/03/25 09:10:06;;;;;;;11.13;9.97;;;;;;;9.89;53.47;101954.38;5071611;28;20174;-83
2022/03/25 09:12:33;;;;;;;18.97;10.47;;;;;;;9.90;53.20;101958.75;5071679;28;20179;-80
2022/03/25 09:14:59;;;;;;;17.67;10.37;;;;;;;9.92;52.67;101953.84;5070249;28;20227;-87
2022/03/25 09:17:25;;;;;;;17.37;10.33;;;;;;;10.09;54.32;101965.34;5071356;28;20182;-82
2022/03/25 09:19:51;;;;;;;14.20;10.37;;;;;;;10.18;54.82;101971.09;5071465;28;20174;-83
2022/03/25 09:22:16;;;;;;;16.37;10.77;;;;;;;10.31;54.37;101972.50;5070053;28;20212;-82
2022/03/25 09:24:41;;;;;;;24.23;12.03;;;;;;;10.40;55.87;101970.84;5071210;28;20186;-80
2022/03/25 09:27:07;;;;;;;19.00;10.97;;;;;;;10.51;53.93;101967.03;5069423;28;20216;-86
2022/03/25 09:29:32;;;;;;;17.10;11.37;;;;;;;10.53;53.62;101975.78;5070273;28;20186;-81
2022/03/25 09:31:57;;;;;;;17.23;11.97;;;;;;;10.67;54.30;101973.31;5070791;28;20178;-85
2022/03/25 09:37:07;;;;;;;13.90;10.90;;;;;;;10.86;53.95;101984.53;5070781;28;20182;-78
2022/03/25 09:39:32;;;;;;;17.57;11.27;;;;;;;10.94;53.81;101982.03;5070904;28;20182;-81
2022/03/25 09:41:59;;;;;;;19.87;11.40;;;;;;;10.96;53.27;101979.84;5071018;28;20547;-86
2022/03/25 09:44:24;;;;;;;22.40;12.03;;;;;;;11.06;53.82;101984.50;5070981;28;20665;-85
2022/03/25 09:46:50;;;;;;;29.40;11.87;;;;;;;11.15;53.27;101984.75;5071061;28;20171;-80
2022/03/25 09:49:17;;;;;;;18.20;12.33;;;;;;;11.20;52.93;101982.81;5070787;28;20166;-74
2022/03/25 09:51:43;;;;;;;20.63;12.30;;;;;;;11.31;50.69;101989.91;5064713;28;20193;-78
2022/03/25 09:54:11;;;;;;;24.73;13.17;;;;;;;11.56;49.05;101993.63;5070821;28;20206;-85
2022/03/25 09:56:37;;;;;;;20.17;12.17;;;;;;;11.62;48.57;101995.28;5070855;28;20182;-82
2022/03/25 09:59:02;;;;;;;18.30;12.73;;;;;;;11.81;47.74;102004.50;5067117;28;20179;-76
2022/03/25 10:01:27;;;;;;;13.70;11.23;;;;;;;11.78;48.61;101999.56;5068720;28;20170;-79
2022/03/25 10:03:53;;;;;;;21.33;12.33;;;;;;;11.86;47.88;102001.75;5070607;28;20756;-79
2022/03/25 10:06:18;;;;;;;24.10;11.73;;;;;;;12.02;49.24;102013.47;5070664;28;20638;-81
2022/03/25 10:08:53;;;;;;;17.47;12.17;;;;;;;12.02;47.69;102004.41;5070437;28;20179;-83
2022/03/25 10:11:30;;;;;;;19.97;12.03;;;;;;;12.19;48.43;102013.09;5070597;28;20649;-81
2022/03/25 10:14:14;;;;;;;19.87;12.50;;;;;;;12.35;46.94;102013.78;5066622;28;20672;-80
2022/03/25 10:16:41;;;;;;;20.97;12.93;;;;;;;12.48;45.06;102010.41;5069348;28;20471;-78
2022/03/25 10:19:08;;;;;;;20.27;12.27;;;;;;;12.45;45.12;102017.28;5070586;28;20687;-82
2022/03/25 10:22:02;;;;;;;23.27;12.73;;;;;;;12.67;45.53;102016.03;5070548;28;20179;-80
2022/03/25 10:24:44;;;;;;;19.57;13.63;;;;;;;12.64;45.36;102003.72;5070503;28;20215;-80
2022/03/25 10:27:11;;;;;;;23.70;13.07;;;;;;;12.87;47.86;102015.84;5070628;28;20170;-77
2022/03/25 10:29:37;;;;;;;17.63;12.60;;;;;;;12.87;47.88;102009.53;5070447;28;20529;-79
2022/03/25 10:32:18;;;;;;;17.87;13.13;;;;;;;13.00;48.35;102006.94;5070371;28;20179;-77
2022/03/25 10:34:44;;;;;;;19.90;13.20;;;;;;;12.99;48.44;101994.31;5070580;28;20638;-80
2022/03/25 10:37:11;;;;;;;23.57;13.93;;;;;;;13.14;48.83;102015.31;5070013;28;20171;-78
2022/03/25 10:39:38;;;;;;;19.60;13.17;;;;;;;13.18;47.93;102001.84;5069967;28;20182;-76
2022/03/25 10:42:06;;;;;;;19.07;13.57;;;;;;;13.26;48.54;101998.47;5065180;28;20186;-81
2022/03/25 10:44:43;;;;;;;19.17;14.03;;;;;;;13.51;48.11;102009.19;5063818;28;20187;-79
2022/03/25 10:47:14;;;;;;;24.73;13.67;;;;;;;13.51;47.65;102000.13;5068240;28;20548;-77
2022/03/25 10:49:43;;;;;;;18.53;14.27;;;;;;;13.59;48.28;102003.03;5068850;28;20655;-80
2022/03/25 10:52:21;;;;;;;25.70;13.97;;;;;;;13.58;47.97;102000.56;5068797;28;20509;-76
2022/03/25 10:54:47;;;;;;;20.10;13.87;;;;;;;13.76;47.85;102008.06;5070408;28;20166;-77
2022/03/25 10:57:12;;;;;;;20.90;15.50;;;;;;;13.79;47.99;102004.72;5070101;28;20174;-73
2022/03/25 10:59:37;;;;;;;19.80;14.50;;;;;;;13.78;48.15;101997.59;5070517;28;20177;-78
2022/03/25 11:02:07;;;;;;;23.00;15.57;;;;;;;13.86;47.84;102001.59;5068878;28;20178;-75
2022/03/25 11:04:33;;;;;;;26.67;17.87;;;;;;;14.14;48.93;102010.81;5055644;28;20208;-72
2022/03/25 11:07:02;;;;;;;21.43;16.40;;;;;;;14.28;48.54;102012.53;5053732;28;20272;-80
2022/03/25 11:09:29;;;;;;;23.47;17.80;;;;;;;14.13;47.89;102000.94;5053490;28;20253;-83
2022/03/25 11:11:57;;;;;;;26.33;18.40;;;;;;;14.16;48.08;102000.34;5052474;28;20646;-76
2022/03/25 11:14:23;;;;;;;24.73;18.00;;;;;;;14.15;48.20;102001.47;5053881;28;20274;-73
2022/03/25 11:16:56;;;;;;;32.37;19.67;;;;;;;14.22;47.89;102000.00;5053620;28;20172;-84
2022/03/25 11:19:22;;;;;;;24.50;18.83;;;;;;;14.12;47.76;101994.63;5053928;28;20258;-80
2022/03/25 11:21:49;;;;;;;26.50;18.70;;;;;;;14.18;47.65;101998.13;5053619;28;20163;-75
2022/03/25 11:24:22;;;;;;;26.93;19.70;;;;;;;14.40;47.95;102012.09;5053551;28;20199;-76
2022/03/25 11:26:50;;;;;;;26.57;19.87;;;;;;;14.18;47.42;101987.16;5053505;28;20462;-80
2022/03/25 11:29:17;;;;;;;32.80;19.93;;;;;;;14.24;47.67;101995.00;5053336;28;20163;-78